Time;durP1;ratioP1;P1;durP2;ratioP2;P2;SDS_P1;SDS_P2;PMS_P1;PMS_P2;Temp;Humidity;BMP_temperature;BMP_pressure;BME280_temperature;BME280_humidity;BME280_pressure;Samples;Min_cycle;Max_cycle;Signal;HPM_P1;HPM_P2
2020/12/25 00:01:07;;;;;;;2.97;0.60;;;6.20;73.50;;;;;;5014575;28;20053;-72
2020/12/25 00:03:33;;;;;;;2.58;0.60;;;6.20;73.60;;;;;;5015991;28;20041;-72
2020/12/25 00:05:59;;;;;;;3.83;0.68;;;6.00;73.50;;;;;;5015534;28;20159;-72
2020/12/25 00:08:25;;;;;;;3.47;0.50;;;6.30;73.80;;;;;;5015928;28;20038;-72
2020/12/25 00:10:54;;;;;;;3.75;0.52;;;6.00;73.60;;;;;;5015195;28;20416;-72
2020/12/25 00:13:20;;;;;;;4.95;0.68;;;6.30;73.70;;;;;;5015644;28;20073;-72
2020/12/25 00:15:46;;;;;;;3.10;0.63;;;6.10;73.60;;;;;;5015549;28;20046;-72
2020/12/25 00:18:12;;;;;;;3.20;0.57;;;6.20;73.80;;;;;;5015499;28;20100;-72
2020/12/25 00:20:38;;;;;;;5.47;0.55;;;6.30;73.90;;;;;;5015717;28;20501;-72
2020/12/25 00:23:04;;;;;;;3.70;0.73;;;6.10;73.80;;;;;;5015305;28;20046;-72
2020/12/25 00:25:30;;;;;;;5.68;1.98;;;6.20;73.80;;;;;;5015327;28;20052;-72
2020/12/25 00:27:56;;;;;;;6.00;1.17;;;6.40;73.90;;;;;;5015386;28;20042;-72
2020/12/25 00:30:21;;;;;;;6.15;1.73;;;6.20;73.80;;;;;;5014805;28;20054;-72
2020/12/25 00:32:47;;;;;;;5.53;1.20;;;6.50;74.00;;;;;;5015219;28;20038;-72
2020/12/25 00:35:13;;;;;;;5.45;1.65;;;6.40;74.00;;;;;;5015329;28;20084;-72
2020/12/25 00:37:39;;;;;;;7.05;2.15;;;6.30;74.00;;;;;;5015003;28;20041;-72
2020/12/25 00:40:04;;;;;;;5.70;1.40;;;6.10;74.00;;;;;;5015441;28;20048;-72
2020/12/25 00:42:30;;;;;;;3.97;1.13;;;6.00;74.00;;;;;;5015177;28;20052;-72
2020/12/25 00:44:56;;;;;;;6.35;1.75;;;6.10;74.10;;;;;;5015123;28;20033;-71
2020/12/25 00:47:22;;;;;;;4.90;1.70;;;6.30;74.30;;;;;;5014478;28;20042;-72
2020/12/25 00:49:47;;;;;;;5.43;1.30;;;6.30;74.30;;;;;;5015012;28;20073;-72
2020/12/25 00:52:13;;;;;;;4.15;0.98;;;6.10;74.30;;;;;;5014567;28;20042;-72
2020/12/25 00:54:39;;;;;;;4.68;1.20;;;6.00;74.20;;;;;;5014812;28;20057;-72
2020/12/25 00:57:05;;;;;;;4.60;1.30;;;6.10;74.30;;;;;;5014748;28;20037;-72
2020/12/25 00:59:30;;;;;;;4.40;1.35;;;6.10;74.30;;;;;;5014648;28;20033;-72
2020/12/25 01:01:56;;;;;;;5.07;1.13;;;6.10;74.30;;;;;;5014889;28;20117;-72
2020/12/25 01:04:22;;;;;;;6.93;1.23;;;5.90;74.10;;;;;;5014649;28;20070;-72
2020/12/25 01:06:48;;;;;;;6.22;1.42;;;6.00;74.20;;;;;;5014894;28;20040;-72
2020/12/25 01:09:13;;;;;;;2.10;0.70;;;5.90;74.10;;;;;;5029908;28;20132;-72
2020/12/25 01:11:40;;;;;;;4.68;1.15;;;5.90;74.10;;;;;;5014330;28;20038;-72
2020/12/25 01:14:07;;;;;;;3.53;1.40;;;6.00;74.40;;;;;;5014433;28;20489;-72
2020/12/25 01:16:33;;;;;;;3.67;1.02;;;5.90;74.40;;;;;;5014570;28;20069;-72
2020/12/25 01:18:59;;;;;;;5.40;0.80;;;6.00;74.50;;;;;;5014297;28;20062;-72
2020/12/25 01:21:25;;;;;;;7.57;1.23;;;5.90;74.50;;;;;;5014088;28;20042;-72
2020/12/25 01:23:50;;;;;;;4.10;1.05;;;6.20;74.60;;;;;;5014363;28;20497;-72
2020/12/25 01:26:16;;;;;;;3.85;0.88;;;5.90;74.50;;;;;;5014663;28;20033;-72
2020/12/25 01:28:42;;;;;;;6.50;0.98;;;6.10;74.60;;;;;;5014253;28;20042;-72
2020/12/25 01:31:08;;;;;;;8.45;1.25;;;6.00;74.60;;;;;;5014646;28;20081;-72
2020/12/25 01:33:34;;;;;;;8.02;0.90;;;5.90;74.50;;;;;;5014586;28;20033;-71
2020/12/25 01:36:01;;;;;;;4.95;1.45;;;6.00;74.70;;;;;;5014204;28;20548;-72
2020/12/25 01:38:27;;;;;;;8.40;1.30;;;5.90;74.70;;;;;;5013078;28;20057;-71
2020/12/25 01:40:53;;;;;;;4.20;0.90;;;6.00;74.70;;;;;;5014286;28;20069;-72
2020/12/25 01:43:19;;;;;;;5.03;1.00;;;5.80;74.60;;;;;;5014218;28;20096;-72
2020/12/25 01:45:44;;;;;;;5.15;0.68;;;6.00;74.70;;;;;;5014116;28;20504;-72
2020/12/25 01:48:11;;;;;;;7.30;0.88;;;6.00;74.90;;;;;;5014587;28;20075;-72
2020/12/25 01:50:37;;;;;;;4.72;0.68;;;6.00;74.70;;;;;;5014331;28;20049;-72
2020/12/25 01:53:05;;;;;;;3.47;0.75;;;5.80;74.70;;;;;;5014113;28;20050;-72
2020/12/25 01:55:36;;;;;;;9.55;0.80;;;6.00;74.80;;;;;;5013999;28;20053;-72
2020/12/25 01:58:03;;;;;;;4.18;0.55;;;5.90;74.80;;;;;;5014198;28;20038;-72
2020/12/25 02:00:30;;;;;;;5.60;0.80;;;6.10;74.90;;;;;;5014378;28;20038;-72
2020/12/25 02:02:56;;;;;;;6.72;0.95;;;5.80;74.80;;;;;;5014164;28;20045;-72
2020/12/25 02:05:22;;;;;;;6.05;0.70;;;6.00;74.90;;;;;;5013916;28;20050;-72
2020/12/25 02:07:48;;;;;;;5.57;0.80;;;5.90;74.80;;;;;;5014235;28;20069;-72
2020/12/25 02:10:15;;;;;;;6.00;0.73;;;6.00;75.00;;;;;;5014130;28;20045;-72
2020/12/25 02:12:41;;;;;;;5.97;0.75;;;6.00;75.10;;;;;;5013334;28;20042;-72
2020/12/25 02:15:08;;;;;;;3.90;0.70;;;6.00;74.90;;;;;;5013817;28;20042;-72
2020/12/25 02:17:33;;;;;;;5.80;1.13;;;5.90;74.70;;;;;;5012545;28;20069;-72
2020/12/25 02:20:02;;;;;;;7.22;1.10;;;5.80;74.70;;;;;;5013312;28;20073;-72
2020/12/25 02:22:29;;;;;;;4.45;0.70;;;6.10;74.80;;;;;;5014081;28;20482;-72
2020/12/25 02:24:55;;;;;;;6.18;0.80;;;6.00;74.50;;;;;;5032857;28;20125;-72
2020/12/25 02:27:21;;;;;;;5.45;1.00;;;6.30;74.70;;;;;;5017474;28;20069;-72
2020/12/25 02:29:47;;;;;;;6.80;0.95;;;6.00;74.50;;;;;;5017412;28;20445;-72
2020/12/25 02:32:12;;;;;;;6.32;0.77;;;6.00;74.70;;;;;;5017455;28;20041;-72
2020/12/25 02:34:38;;;;;;;5.80;0.80;;;6.00;74.50;;;;;;5017273;28;20376;-72
2020/12/25 02:37:04;;;;;;;2.97;0.80;;;5.90;74.50;;;;;;5017408;28;20045;-72
2020/12/25 02:39:30;;;;;;;4.65;1.10;;;6.00;74.50;;;;;;5017274;28;20523;-72
2020/12/25 02:41:55;;;;;;;9.57;1.15;;;5.90;74.30;;;;;;5016828;28;20092;-72
2020/12/25 02:44:21;;;;;;;4.65;0.70;;;5.90;74.20;;;;;;5016855;28;20038;-72
2020/12/25 02:46:47;;;;;;;4.03;0.55;;;5.90;74.30;;;;;;5032613;28;20121;-72
2020/12/25 02:49:13;;;;;;;2.38;0.80;;;6.10;74.40;;;;;;5017030;28;20038;-72
2020/12/25 02:51:39;;;;;;;4.95;0.82;;;5.90;74.30;;;;;;5032481;28;20046;-72
2020/12/25 02:54:05;;;;;;;6.70;1.10;;;5.80;74.10;;;;;;5016743;28;20497;-72
2020/12/25 02:56:31;;;;;;;9.23;1.67;;;5.70;74.00;;;;;;5016672;28;20077;-72
2020/12/25 02:58:56;;;;;;;6.85;0.93;;;6.00;74.20;;;;;;5016787;28;20041;-72
2020/12/25 03:01:22;;;;;;;7.35;1.13;;;5.90;74.10;;;;;;5032086;28;20033;-72
2020/12/25 03:03:48;;;;;;;9.52;1.70;;;5.80;74.10;;;;;;5016607;28;20045;-72
2020/12/25 03:06:13;;;;;;;4.07;0.82;;;6.00;74.10;;;;;;5016827;28;20404;-72
2020/12/25 03:08:39;;;;;;;6.90;1.15;;;5.80;74.30;;;;;;5017144;28;20079;-72
2020/12/25 03:11:05;;;;;;;11.73;2.20;;;5.90;74.40;;;;;;5016543;28;20045;-72
2020/12/25 03:13:31;;;;;;;10.38;2.65;;;5.60;74.40;;;;;;5016594;28;20038;-72
2020/12/25 03:15:57;;;;;;;9.25;1.45;;;5.80;74.50;;;;;;5016276;28;20049;-72
2020/12/25 03:18:23;;;;;;;3.65;0.52;;;5.80;74.70;;;;;;5016387;28;20046;-72
2020/12/25 03:20:49;;;;;;;5.95;1.02;;;5.90;74.80;;;;;;5016420;28;20041;-72
2020/12/25 03:23:14;;;;;;;7.00;1.48;;;5.90;74.70;;;;;;5016516;28;20038;-72
2020/12/25 03:25:40;;;;;;;6.43;1.33;;;5.60;74.40;;;;;;5016344;28;20135;-72
2020/12/25 03:28:07;;;;;;;8.63;1.90;;;5.80;74.50;;;;;;5015966;28;20150;-72
2020/12/25 03:30:33;;;;;;;6.38;1.33;;;6.20;74.80;;;;;;5016479;28;20060;-72
2020/12/25 03:32:59;;;;;;;3.58;0.93;;;5.70;74.70;;;;;;5016573;28;20042;-72
2020/12/25 03:35:25;;;;;;;7.47;1.20;;;5.80;74.70;;;;;;5015747;28;20100;-72
2020/12/25 03:37:51;;;;;;;8.95;2.30;;;6.10;74.90;;;;;;5016014;28;20513;-72
2020/12/25 03:40:17;;;;;;;8.55;1.50;;;5.70;74.70;;;;;;5015957;28;20073;-72
2020/12/25 03:42:43;;;;;;;8.57;1.13;;;5.60;74.70;;;;;;5016314;28;20053;-72
2020/12/25 03:45:09;;;;;;;7.50;1.38;;;5.90;74.90;;;;;;5016426;28;20079;-72
2020/12/25 03:47:35;;;;;;;8.48;1.40;;;5.60;74.90;;;;;;5016428;28;20026;-72
2020/12/25 03:50:01;;;;;;;6.15;1.35;;;6.00;75.00;;;;;;5015960;28;20115;-72
2020/12/25 03:52:27;;;;;;;7.40;1.20;;;6.00;75.00;;;;;;5015850;28;20501;-72
2020/12/25 03:54:52;;;;;;;9.93;1.45;;;5.90;74.90;;;;;;5016207;28;20046;-72
2020/12/25 03:57:18;;;;;;;13.65;1.80;;;6.20;75.00;;;;;;5030905;28;20088;-72
2020/12/25 03:59:44;;;;;;;6.28;0.80;;;6.10;74.90;;;;;;5016316;28;20053;-72
2020/12/25 04:02:10;;;;;;;4.80;0.68;;;5.80;74.70;;;;;;5016105;28;20054;-72
2020/12/25 04:04:36;;;;;;;5.57;0.80;;;6.00;74.80;;;;;;4998214;28;20100;-72
2020/12/25 04:07:01;;;;;;;4.00;0.60;;;5.90;75.00;;;;;;5016138;28;20047;-72
2020/12/25 04:09:27;;;;;;;8.15;0.90;;;5.90;74.90;;;;;;5015968;28;20053;-72
2020/12/25 04:11:53;;;;;;;4.05;0.77;;;6.10;74.90;;;;;;5030894;28;20118;-72
2020/12/25 04:14:19;;;;;;;4.43;0.85;;;6.00;74.70;;;;;;5016035;28;20402;-72
2020/12/25 04:16:45;;;;;;;6.70;1.00;;;6.00;74.70;;;;;;5030902;28;20034;-72
2020/12/25 04:19:11;;;;;;;6.22;0.88;;;5.90;74.80;;;;;;5016092;28;20121;-72
2020/12/25 04:21:40;;;;;;;5.60;1.30;;;5.90;74.70;;;;;;5014496;28;20069;-72
2020/12/25 04:24:06;;;;;;;6.47;0.70;;;5.90;74.70;;;;;;5015693;28;20046;-72
2020/12/25 04:26:31;;;;;;;5.43;0.80;;;5.90;74.60;;;;;;5015292;28;20041;-72
2020/12/25 04:28:57;;;;;;;6.25;0.75;;;6.00;74.60;;;;;;5015423;28;20065;-72
2020/12/25 04:31:26;;;;;;;4.88;1.55;;;5.90;74.50;;;;;;5015724;28;20133;-72
2020/12/25 04:33:53;;;;;;;5.90;1.80;;;5.80;74.30;;;;;;5015821;28;20157;-72
2020/12/25 04:36:20;;;;;;;5.63;1.77;;;6.00;74.30;;;;;;5015139;28;20121;-72
2020/12/25 04:38:46;;;;;;;5.93;1.42;;;5.80;74.20;;;;;;5015624;28;20088;-72
2020/12/25 04:41:12;;;;;;;9.57;2.25;;;5.80;74.20;;;;;;5015463;28;20493;-72
2020/12/25 04:43:41;;;;;;;7.55;2.45;;;5.90;74.20;;;;;;5015357;28;20038;-72
2020/12/25 04:46:08;;;;;;;8.32;1.55;;;5.70;74.00;;;;;;5014468;28;20127;-72
2020/12/25 04:48:35;;;;;;;9.02;1.63;;;5.60;74.10;;;;;;5014893;28;20046;-72
2020/12/25 04:51:02;;;;;;;7.13;1.60;;;5.70;74.20;;;;;;5014955;28;20042;-72
2020/12/25 04:53:28;;;;;;;5.10;1.15;;;5.60;74.10;;;;;;5015058;28;20030;-72
2020/12/25 04:55:54;;;;;;;6.70;1.35;;;5.70;74.30;;;;;;5013797;28;20042;-72
2020/12/25 04:58:20;;;;;;;6.68;1.33;;;6.00;75.10;;;;;;5015116;28;20041;-72
2020/12/25 05:01:04;;;;;;;6.80;1.00;;;6.00;74.60;;;;;;5015104;28;20054;-72
2020/12/25 05:03:38;;;;;;;6.30;0.80;;;6.00;74.60;;;;;;5013370;28;20045;-72
2020/12/25 05:06:08;;;;;;;3.30;0.77;;;6.10;74.60;;;;;;5014987;28;20081;-72
2020/12/25 05:08:39;;;;;;;5.93;1.23;;;6.00;74.50;;;;;;5014890;28;20042;-72
2020/12/25 05:11:06;;;;;;;5.07;1.00;;;6.40;74.60;;;;;;5014781;28;20143;-72
2020/12/25 05:13:33;;;;;;;5.43;1.00;;;6.30;74.70;;;;;;5014772;28;20034;-72
2020/12/25 05:16:00;;;;;;;2.72;0.80;;;6.40;74.70;;;;;;5014554;28;20037;-72
2020/12/25 05:18:31;;;;;;;4.30;1.20;;;6.20;74.60;;;;;;5029506;28;20034;-72
2020/12/25 05:20:58;;;;;;;4.82;1.15;;;6.20;74.50;;;;;;5014731;28;20038;-72
2020/12/25 05:23:31;;;;;;;7.68;1.00;;;6.50;74.70;;;;;;5014236;28;20125;-72
2020/12/25 05:26:00;;;;;;;7.72;1.13;;;6.60;74.80;;;;;;5014093;28;20115;-72
2020/12/25 05:28:28;;;;;;;5.32;0.90;;;6.40;74.60;;;;;;5014271;28;20104;-72
2020/12/25 05:30:57;;;;;;;5.00;0.75;;;6.30;74.30;;;;;;5013879;28;20046;-71
2020/12/25 05:33:24;;;;;;;2.20;0.40;;;6.20;74.10;;;;;;5013927;28;20081;-71
2020/12/25 05:35:55;;;;;;;5.78;0.90;;;6.20;74.20;;;;;;5014146;28;20049;-71
2020/12/25 05:38:27;;;;;;;9.95;0.90;;;5.90;74.10;;;;;;5014418;28;20078;-71
2020/12/25 05:40:54;;;;;;;4.15;0.88;;;6.20;74.40;;;;;;5014572;28;20034;-71
2020/12/25 05:43:20;;;;;;;2.35;0.65;;;6.10;75.00;;;;;;5014091;28;20234;-71
2020/12/25 05:45:46;;;;;;;7.40;0.95;;;6.10;74.70;;;;;;5014063;28;20044;-71
2020/12/25 05:48:13;;;;;;;7.25;1.30;;;6.30;74.80;;;;;;5014421;28;20038;-71
2020/12/25 05:50:41;;;;;;;5.00;1.17;;;6.40;74.90;;;;;;5014388;28;20121;-71
2020/12/25 05:53:07;;;;;;;4.18;1.30;;;6.20;74.70;;;;;;5014241;28;20056;-71
2020/12/25 05:55:34;;;;;;;4.80;0.60;;;6.60;75.00;;;;;;5014320;28;20044;-71
2020/12/25 05:58:03;;;;;;;5.93;1.20;;;6.60;75.00;;;;;;5014002;28;20104;-71
2020/12/25 06:00:30;;;;;;;5.28;0.90;;;6.60;74.90;;;;;;5013759;28;20072;-71
2020/12/25 06:02:56;;;;;;;4.00;0.90;;;6.80;74.90;;;;;;5013922;28;20077;-71
2020/12/25 06:05:24;;;;;;;4.95;0.60;;;6.70;74.80;;;;;;5029479;28;20049;-71
2020/12/25 06:07:58;;;;;;;6.40;1.15;;;6.50;74.70;;;;;;5012397;28;20042;-71
2020/12/25 06:10:29;;;;;;;5.13;1.35;;;6.70;74.80;;;;;;5013954;28;20167;-71
2020/12/25 06:12:56;;;;;;;5.35;1.23;;;6.90;74.90;;;;;;5012506;28;20046;-71
2020/12/25 06:15:31;;;;;;;7.75;1.23;;;6.90;74.80;;;;;;5013817;28;20054;-71
2020/12/25 06:18:03;;;;;;;5.47;1.17;;;6.80;74.70;;;;;;5013455;28;20516;-71
2020/12/25 06:20:34;;;;;;;4.65;1.17;;;7.00;74.80;;;;;;5014187;28;20052;-71
2020/12/25 06:23:04;;;;;;;7.22;1.63;;;7.00;74.70;;;;;;5014061;28;20057;-71
2020/12/25 06:25:30;;;;;;;5.45;1.13;;;7.00;74.90;;;;;;5013459;28;20038;-71
2020/12/25 06:28:01;;;;;;;4.55;0.88;;;7.00;75.00;;;;;;5013886;28;20073;-71
2020/12/25 06:30:29;;;;;;;5.70;0.90;;;7.00;75.00;;;;;;5013680;28;20207;-71
2020/12/25 06:32:57;;;;;;;3.03;0.40;;;7.20;75.00;;;;;;5013451;28;20048;-71
2020/12/25 06:35:31;;;;;;;4.00;0.60;;;7.20;75.00;;;;;;5013530;28;20070;-71
2020/12/25 06:37:57;;;;;;;4.50;0.73;;;7.20;75.10;;;;;;5013338;28;20061;-71
2020/12/25 06:40:25;;;;;;;6.40;0.60;;;7.10;75.00;;;;;;5013113;28;20037;-71
2020/12/25 06:42:54;;;;;;;3.38;1.25;;;7.20;74.90;;;;;;5013163;28;20042;-71
2020/12/25 06:45:27;;;;;;;4.70;1.10;;;7.30;74.70;;;;;;5013464;28;20048;-71
2020/12/25 06:48:13;;;;;;;6.63;0.40;;;7.20;74.70;;;;;;5013334;28;20034;-71
2020/12/25 06:50:44;;;;;;;4.90;0.63;;;7.10;74.50;;;;;;5013614;28;20052;-71
2020/12/25 06:53:09;;;;;;;3.92;0.80;;;7.00;74.50;;;;;;5013348;28;20034;-71
2020/12/25 06:55:44;;;;;;;5.07;0.40;;;6.80;74.10;;;;;;5013764;28;20100;-71
2020/12/25 06:58:10;;;;;;;;;;;6.40;73.80;;;;;;5013695;28;20052;-71
2020/12/25 07:00:40;;;;;;;4.82;0.40;;;6.70;74.10;;;;;;5013301;28;19909;-71
2020/12/25 07:03:10;;;;;;;4.45;0.70;;;6.60;73.90;;;;;;5013136;28;20088;-71
2020/12/25 07:05:47;;;;;;;4.07;0.38;;;6.20;73.70;;;;;;5013171;28;20074;-71
2020/12/25 07:08:27;;;;;;;6.03;0.50;;;6.50;74.00;;;;;;5013169;28;20046;-71
2020/12/25 07:11:03;;;;;;;4.38;0.40;;;6.30;74.40;;;;;;5016321;28;20043;-71
2020/12/25 07:13:33;;;;;;;2.38;0.40;;;6.20;74.10;;;;;;5016671;28;20038;-71
2020/12/25 07:16:00;;;;;;;2.15;0.30;;;6.40;74.10;;;;;;5016501;28;20052;-71
2020/12/25 07:18:26;;;;;;;6.68;1.05;;;6.40;74.20;;;;;;5016458;28;20037;-71
2020/12/25 07:20:54;;;;;;;5.53;1.40;;;6.20;74.00;;;;;;5016643;28;20072;-71
2020/12/25 07:23:20;;;;;;;4.40;0.50;;;6.30;74.10;;;;;;5016552;28;20072;-71
2020/12/25 07:25:46;;;;;;;4.63;1.20;;;6.20;74.30;;;;;;5016370;28;20038;-71
2020/12/25 07:28:12;;;;;;;4.00;0.77;;;6.50;74.70;;;;;;5016586;28;20045;-71
2020/12/25 07:30:38;;;;;;;3.72;0.68;;;6.30;74.60;;;;;;5016371;28;20062;-71
2020/12/25 07:33:05;;;;;;;4.75;0.68;;;6.40;74.70;;;;;;5016635;28;20089;-71
2020/12/25 07:35:31;;;;;;;3.75;0.70;;;6.40;74.80;;;;;;5016335;28;20539;-71
2020/12/25 07:37:57;;;;;;;6.55;1.30;;;6.50;75.00;;;;;;5016754;28;20131;-71
2020/12/25 07:40:23;;;;;;;4.70;0.45;;;6.50;74.80;;;;;;5016641;28;20041;-71
2020/12/25 07:42:52;;;;;;;3.50;0.77;;;6.40;74.60;;;;;;5016362;28;20041;-71
2020/12/25 07:45:19;;;;;;;6.03;1.75;;;6.50;74.20;;;;;;5016494;28;20041;-71
2020/12/25 07:47:48;;;;;;;3.38;0.40;;;6.40;74.30;;;;;;5016434;28;20073;-71
2020/12/25 07:50:14;;;;;;;4.22;0.63;;;6.40;74.30;;;;;;5016103;28;20069;-71
2020/12/25 07:52:42;;;;;;;4.72;0.65;;;6.30;74.20;;;;;;5016036;28;20548;-71
2020/12/25 07:55:09;;;;;;;1.42;0.40;;;6.30;74.20;;;;;;5016009;28;20081;-71
2020/12/25 07:57:38;;;;;;;3.70;0.50;;;6.30;74.30;;;;;;5016107;28;20034;-71
2020/12/25 08:00:04;;;;;;;2.80;0.60;;;6.40;74.20;;;;;;5015982;28;20129;-71
2020/12/25 08:02:34;;;;;;;4.25;0.60;;;6.40;74.10;;;;;;5016092;28;20089;-71
2020/12/25 08:05:00;;;;;;;4.88;0.70;;;6.40;74.10;;;;;;5015714;28;20133;-71
2020/12/25 08:07:26;;;;;;;4.85;0.75;;;6.40;73.90;;;;;;5016139;28;20565;-71
2020/12/25 08:09:53;;;;;;;6.30;1.30;;;6.20;73.70;;;;;;5015995;28;20084;-70
2020/12/25 08:12:24;;;;;;;16.58;6.15;;;6.30;73.80;;;;;;5015360;28;20042;-70
2020/12/25 08:14:51;;;;;;;7.65;2.65;;;6.40;73.80;;;;;;5015573;28;20050;-70
2020/12/25 08:17:18;;;;;;;5.00;1.38;;;6.40;73.70;;;;;;5015639;28;20041;-70
2020/12/25 08:19:47;;;;;;;4.57;0.65;;;6.30;73.50;;;;;;5015515;28;20065;-72
2020/12/25 08:22:13;;;;;;;4.53;1.20;;;6.50;73.60;;;;;;5014405;28;20057;-70
2020/12/25 08:24:39;;;;;;;3.28;1.05;;;6.40;73.50;;;;;;5015391;28;20026;-73
2020/12/25 08:27:05;;;;;;;9.90;2.83;;;6.80;73.40;;;;;;5015014;28;20080;-72
2020/12/25 08:29:32;;;;;;;6.45;1.27;;;7.50;72.90;;;;;;5014755;28;20084;-72
2020/12/25 08:32:08;;;;;;;5.13;1.42;;;8.10;72.60;;;;;;5015329;28;20042;-72
2020/12/25 08:34:35;;;;;;;6.32;1.40;;;8.30;72.30;;;;;;5015630;28;20129;-72
2020/12/25 08:37:04;;;;;;;3.97;1.08;;;8.10;72.00;;;;;;5014195;28;20046;-72
2020/12/25 08:39:33;;;;;;;5.28;1.13;;;8.40;72.40;;;;;;5015495;28;20100;-72
2020/12/25 08:42:00;;;;;;;4.32;1.55;;;9.10;71.60;;;;;;5015085;28;20087;-72
2020/12/25 08:44:26;;;;;;;5.05;1.92;;;9.50;71.10;;;;;;5015383;28;20125;-72
2020/12/25 08:47:06;;;;;;;5.70;1.17;;;9.40;70.90;;;;;;5015339;28;20037;-73
2020/12/25 08:49:31;;;;;;;4.53;1.00;;;9.70;70.10;;;;;;5014699;28;20493;-72
2020/12/25 08:51:57;;;;;;;4.57;0.73;;;10.60;69.60;;;;;;5030095;28;20049;-72
2020/12/25 08:54:30;;;;;;;2.70;0.60;;;11.30;68.50;;;;;;5015357;28;20044;-72
2020/12/25 08:56:56;;;;;;;4.18;1.80;;;11.90;67.00;;;;;;5014606;28;20034;-72
2020/12/25 08:59:22;;;;;;;4.40;1.58;;;11.80;67.00;;;;;;5015218;28;20093;-72
2020/12/25 09:01:50;;;;;;;3.85;1.05;;;12.60;66.60;;;;;;5014780;28;20038;-72
2020/12/25 09:04:19;;;;;;;2.90;0.60;;;13.10;64.90;;;;;;5014774;28;20085;-70
2020/12/25 09:06:49;;;;;;;5.13;0.55;;;13.30;63.70;;;;;;5014867;28;20529;-72
2020/12/25 09:09:15;;;;;;;3.80;0.75;;;13.50;63.10;;;;;;5014705;28;20048;-72
2020/12/25 09:11:41;;;;;;;2.65;0.60;;;13.80;62.90;;;;;;5014762;28;20041;-72
2020/12/25 09:14:06;;;;;;;3.63;0.77;;;13.50;62.80;;;;;;5014723;28;20141;-71
2020/12/25 09:16:32;;;;;;;4.05;0.60;;;13.50;63.50;;;;;;5014670;28;20125;-71
2020/12/25 09:18:59;;;;;;;3.13;0.57;;;13.00;63.40;;;;;;5014500;28;20046;-72
2020/12/25 09:21:27;;;;;;;4.55;0.70;;;12.70;63.50;;;;;;5014768;28;20046;-72
2020/12/25 09:23:56;;;;;;;4.32;0.60;;;12.80;63.80;;;;;;5014823;28;20050;-72
2020/12/25 09:26:23;;;;;;;18.25;7.68;;;12.70;63.30;;;;;;5014573;28;20068;-72
2020/12/25 09:28:48;;;;;;;4.40;0.50;;;12.60;62.60;;;;;;5014701;28;20042;-72
2020/12/25 09:31:14;;;;;;;4.25;0.60;;;12.80;62.20;;;;;;5014107;28;20068;-72
2020/12/25 09:33:41;;;;;;;2.65;0.50;;;13.10;62.20;;;;;;5013925;28;20555;-72
2020/12/25 09:36:08;;;;;;;6.38;0.93;;;12.90;62.40;;;;;;5013711;28;20081;-72
2020/12/25 09:38:36;;;;;;;4.10;0.60;;;12.80;62.30;;;;;;5014289;28;20558;-72
2020/12/25 09:41:02;;;;;;;4.18;0.50;;;12.60;62.40;;;;;;5013920;28;20433;-72
2020/12/25 09:43:32;;;;;;;3.85;0.45;;;12.30;62.60;;;;;;5013835;28;20033;-71
2020/12/25 09:45:58;;;;;;;4.97;0.60;;;12.20;63.00;;;;;;5014018;28;20112;-71
2020/12/25 09:48:25;;;;;;;3.83;0.50;;;12.00;63.40;;;;;;5013845;28;20503;-72
2020/12/25 09:50:51;;;;;;;3.97;0.63;;;11.80;63.90;;;;;;5013927;28;20068;-72
2020/12/25 09:53:17;;;;;;;2.63;0.50;;;11.60;64.00;;;;;;5013962;28;20049;-72
2020/12/25 09:55:43;;;;;;;4.00;0.60;;;11.20;63.60;;;;;;5013502;28;20124;-71
2020/12/25 09:58:09;;;;;;;3.45;0.45;;;10.90;64.40;;;;;;5013471;28;20119;-72
2020/12/25 10:00:35;;;;;;;3.65;0.88;;;10.80;66.20;;;;;;5013817;28;20038;-71
2020/12/25 10:03:01;;;;;;;3.95;1.20;;;10.70;66.90;;;;;;5013478;28;20596;-71
2020/12/25 10:05:28;;;;;;;6.40;0.90;;;10.60;67.30;;;;;;5013968;28;20053;-71
2020/12/25 10:07:54;;;;;;;2.38;0.40;;;10.50;67.10;;;;;;5013549;28;20532;-71
2020/12/25 10:10:21;;;;;;;2.72;0.90;;;10.40;66.80;;;;;;5013828;28;20045;-71
2020/12/25 10:12:48;;;;;;;7.60;1.38;;;10.40;66.40;;;;;;5028711;28;20052;-71
2020/12/25 10:15:14;;;;;;;7.78;4.40;;;10.20;66.00;;;;;;5013281;28;20452;-71
2020/12/25 10:17:40;;;;;;;3.33;1.58;;;10.20;66.20;;;;;;5013987;28;20095;-71
2020/12/25 10:20:06;;;;;;;5.10;1.58;;;10.10;65.60;;;;;;5013553;28;20046;-71
2020/12/25 10:22:32;;;;;;;6.28;2.20;;;10.20;65.70;;;;;;5013452;28;20053;-71
2020/12/25 10:24:58;;;;;;;6.43;2.95;;;10.30;65.60;;;;;;5013660;28;20034;-71
2020/12/25 10:27:24;;;;;;;10.77;3.50;;;10.20;65.40;;;;;;5013549;28;20045;-71
2020/12/25 10:29:50;;;;;;;9.18;2.80;;;10.00;65.30;;;;;;5013308;28;20398;-71
2020/12/25 10:32:16;;;;;;;5.00;1.50;;;10.10;65.40;;;;;;5013907;28;20041;-71
2020/12/25 10:34:42;;;;;;;5.38;1.10;;;10.20;65.40;;;;;;5013892;28;20398;-71
2020/12/25 10:37:08;;;;;;;1.17;0.38;;;10.20;65.50;;;;;;5013543;28;20044;-71
2020/12/25 10:39:33;;;;;;;2.80;0.57;;;10.20;65.60;;;;;;5013800;28;20550;-71
2020/12/25 10:41:59;;;;;;;6.25;0.80;;;10.10;65.50;;;;;;5013603;28;20584;-71
2020/12/25 10:44:25;;;;;;;4.20;0.68;;;10.20;65.50;;;;;;5014854;28;20551;-72
2020/12/25 10:46:51;;;;;;;3.10;0.38;;;10.20;65.60;;;;;;5017292;28;20076;-71
2020/12/25 10:49:17;;;;;;;1.75;0.30;;;10.30;65.70;;;;;;5017429;28;20081;-71
2020/12/25 10:51:46;;;;;;;3.15;0.60;;;10.30;65.70;;;;;;5017440;28;20033;-72
2020/12/25 10:54:12;;;;;;;4.63;0.47;;;10.10;65.60;;;;;;5016164;28;20042;-72
2020/12/25 10:56:38;;;;;;;3.65;0.73;;;10.20;65.60;;;;;;5016978;28;20124;-71
2020/12/25 10:59:04;;;;;;;5.03;1.27;;;10.20;65.60;;;;;;5017238;28;20134;-71
2020/12/25 11:01:30;;;;;;;4.15;0.90;;;10.20;65.60;;;;;;5016927;28;20128;-71
2020/12/25 11:03:57;;;;;;;3.65;0.40;;;10.40;65.80;;;;;;5017062;28;20049;-71
2020/12/25 11:06:37;;;;;;;2.97;0.68;;;10.40;65.80;;;;;;5017418;28;20046;-71
2020/12/25 11:09:07;;;;;;;6.20;1.27;;;10.50;66.00;;;;;;5017049;28;20049;-71
2020/12/25 11:11:35;;;;;;;4.93;1.50;;;10.30;65.90;;;;;;5017088;28;20588;-71
2020/12/25 11:14:02;;;;;;;4.47;0.60;;;10.30;65.90;;;;;;5016811;28;20050;-71
2020/12/25 11:16:30;;;;;;;5.07;1.05;;;10.30;65.90;;;;;;5016562;28;20133;-72
2020/12/25 11:18:57;;;;;;;3.55;0.70;;;10.40;66.00;;;;;;5016556;28;20125;-72
2020/12/25 11:21:25;;;;;;;4.97;0.50;;;10.50;66.00;;;;;;5017024;28;20057;-71
2020/12/25 11:23:52;;;;;;;3.10;0.50;;;10.50;66.00;;;;;;5016718;28;20472;-71
2020/12/25 11:26:19;;;;;;;3.83;0.35;;;10.60;66.00;;;;;;5016451;28;20079;-71
2020/12/25 11:28:44;;;;;;;3.17;0.28;;;10.60;66.00;;;;;;5016266;28;20045;-71
2020/12/25 11:31:11;;;;;;;4.57;0.32;;;10.70;66.10;;;;;;5031459;28;20062;-71
2020/12/25 11:33:37;;;;;;;4.90;0.30;;;10.90;66.10;;;;;;5016207;28;20038;-72
2020/12/25 11:36:03;;;;;;;4.07;0.20;;;11.10;66.00;;;;;;5016299;28;20049;-72
2020/12/25 11:38:29;;;;;;;3.00;0.22;;;11.30;66.00;;;;;;5014891;28;20044;-72
2020/12/25 11:40:55;;;;;;;3.15;0.10;;;11.30;65.80;;;;;;5015972;28;20520;-72
2020/12/25 11:43:20;;;;;;;4.25;0.40;;;11.30;65.70;;;;;;5016071;28;20393;-71
2020/12/25 11:45:46;;;;;;;2.92;0.40;;;11.30;65.60;;;;;;5016287;28;20096;-72
2020/12/25 11:48:12;;;;;;;5.88;0.40;;;11.30;65.50;;;;;;5016287;28;20044;-72
2020/12/25 11:50:38;;;;;;;1.85;0.20;;;11.20;65.50;;;;;;5015919;28;20398;-71
2020/12/25 11:53:03;;;;;;;2.05;0.20;;;11.30;65.50;;;;;;5015534;28;20042;-71
2020/12/25 11:55:29;;;;;;;2.47;0.10;;;11.30;65.50;;;;;;5015899;28;20124;-71
2020/12/25 11:57:55;;;;;;;3.17;0.10;;;11.20;65.20;;;;;;5015901;28;20550;-71
2020/12/25 12:00:21;;;;;;;3.13;0.10;;;11.00;64.90;;;;;;5031036;28;20045;-71
2020/12/25 12:02:46;;;;;;;4.35;0.45;;;11.20;65.60;;;;;;5015873;28;20042;-72
2020/12/25 12:05:12;;;;;;;13.68;4.22;;;11.20;65.10;;;;;;5015727;28;20120;-72
2020/12/25 12:07:38;;;;;;;3.38;0.30;;;11.20;65.10;;;;;;5015736;28;20049;-72
2020/12/25 12:10:03;;;;;;;4.50;0.77;;;11.20;65.10;;;;;;5030858;28;20038;-71
2020/12/25 12:12:29;;;;;;;3.58;0.38;;;11.10;65.10;;;;;;5015465;28;20037;-72
2020/12/25 12:14:55;;;;;;;3.50;0.15;;;11.20;64.70;;;;;;5015439;28;20516;-72
2020/12/25 12:17:21;;;;;;;3.30;0.22;;;11.10;64.80;;;;;;5015513;28;20401;-72
2020/12/25 12:19:46;;;;;;;2.80;0.13;;;11.30;64.90;;;;;;5015079;28;20401;-72
2020/12/25 12:22:12;;;;;;;3.03;0.30;;;11.30;64.80;;;;;;5015631;28;20100;-72
2020/12/25 12:24:38;;;;;;;3.50;0.20;;;11.40;64.60;;;;;;5015442;28;20034;-72
2020/12/25 12:27:04;;;;;;;2.20;0.20;;;11.50;64.60;;;;;;5014676;28;20038;-72
2020/12/25 12:29:29;;;;;;;2.30;0.10;;;11.60;65.30;;;;;;5030411;28;20053;-72
2020/12/25 12:31:55;;;;;;;2.50;0.17;;;11.50;64.20;;;;;;5015597;28;20038;-71
2020/12/25 12:34:21;;;;;;;2.92;0.20;;;11.40;64.30;;;;;;5015077;28;20046;-71
2020/12/25 12:36:47;;;;;;;2.47;0.10;;;11.50;64.40;;;;;;5015424;28;20088;-71
2020/12/25 12:39:13;;;;;;;3.42;0.20;;;11.40;64.50;;;;;;5015598;28;20073;-72
2020/12/25 12:41:39;;;;;;;2.30;0.10;;;11.20;64.20;;;;;;5015463;28;20072;-71
2020/12/25 12:44:04;;;;;;;3.33;0.10;;;11.00;63.90;;;;;;5015201;28;20470;-71
2020/12/25 12:46:30;;;;;;;1.88;0.00;;;11.20;63.90;;;;;;5015434;28;20041;-71
2020/12/25 12:48:56;;;;;;;3.28;0.10;;;11.00;63.30;;;;;;5015037;28;20074;-71
2020/12/25 12:51:22;;;;;;;1.92;0.10;;;10.90;63.20;;;;;;5030062;28;20462;-72